createdAt,value
2022-10-18T00:01:50.772Z,10.44
2022-10-18T00:05:13.802Z,10.38
2022-10-18T00:08:45.546Z,10.31
2022-10-18T00:11:55.397Z,10.33
2022-10-18T00:14:58.528Z,10.36
2022-10-18T00:18:09.255Z,10.39
2022-10-18T00:21:26.977Z,10.34
2022-10-18T00:24:33.289Z,10.32
2022-10-18T00:27:36.332Z,10.28
2022-10-18T00:30:41.223Z,10.17
2022-10-18T00:34:03.999Z,10.12
2022-10-18T00:37:18.540Z,10.08
2022-10-18T00:40:40.721Z,9.97
2022-10-18T00:44:10.623Z,10.02
2022-10-18T00:47:33.746Z,9.94
2022-10-18T00:50:55.775Z,9.79
2022-10-18T00:54:11.772Z,9.80
2022-10-18T00:57:33.661Z,9.75
2022-10-18T01:01:03.768Z,9.74
2022-10-18T01:04:27.630Z,9.86
2022-10-18T01:07:50.765Z,9.88
2022-10-18T01:11:36.858Z,9.86
2022-10-18T01:15:18.494Z,9.82
2022-10-18T01:18:41.059Z,9.72
2022-10-18T01:22:14.230Z,9.72
2022-10-18T01:25:49.538Z,9.75
2022-10-18T01:29:30.446Z,9.77
2022-10-18T01:33:00.608Z,9.77
2022-10-18T01:36:29.977Z,9.68
2022-10-18T01:39:46.755Z,9.67
2022-10-18T01:43:02.890Z,9.69
2022-10-18T01:46:25.675Z,9.65
2022-10-18T01:49:45.634Z,9.64
2022-10-18T01:53:08.634Z,9.60
2022-10-18T01:56:32.626Z,9.48
2022-10-18T02:00:10.561Z,9.53
2022-10-18T02:03:22.690Z,9.54
2022-10-18T02:06:38.509Z,9.52
2022-10-18T02:09:59.885Z,9.58
2022-10-18T02:13:16.683Z,9.62
2022-10-18T02:16:24.747Z,9.56
2022-10-18T02:19:43.388Z,9.53
2022-10-18T02:22:56.454Z,9.46
2022-10-18T02:26:18.287Z,9.39
2022-10-18T02:29:37.358Z,9.35
2022-10-18T02:33:01.426Z,9.26
2022-10-18T02:36:35.497Z,9.21
2022-10-18T02:39:55.496Z,9.28
2022-10-18T02:43:10.420Z,9.30
2022-10-18T02:46:21.232Z,9.22
2022-10-18T02:49:44.513Z,9.19
2022-10-18T02:53:14.427Z,9.18
2022-10-18T02:56:37.436Z,9.20
2022-10-18T02:59:59.421Z,9.19
2022-10-18T03:03:22.418Z,9.16
2022-10-18T03:06:45.270Z,9.08
2022-10-18T03:10:04.698Z,9.08
2022-10-18T03:13:21.077Z,8.99
2022-10-18T03:16:38.478Z,8.88
2022-10-18T03:20:01.484Z,8.79
2022-10-18T03:23:31.296Z,8.85
2022-10-18T03:26:55.306Z,8.81
2022-10-18T03:30:17.320Z,8.88
2022-10-18T03:33:39.430Z,8.86
2022-10-18T03:37:04.779Z,8.82
2022-10-18T03:40:24.427Z,8.88
2022-10-18T03:43:40.520Z,8.80
2022-10-18T03:47:00.292Z,8.88
2022-10-18T03:50:28.418Z,8.95
2022-10-18T03:53:51.297Z,8.92
2022-10-18T03:57:06.372Z,8.91
2022-10-18T04:00:29.283Z,8.91
2022-10-18T04:03:49.364Z,8.89
2022-10-18T04:07:09.463Z,8.87
2022-10-18T04:10:30.323Z,8.85
2022-10-18T04:13:49.186Z,8.84
2022-10-18T04:16:56.449Z,8.82
2022-10-18T04:20:05.947Z,8.78
2022-10-18T04:23:27.900Z,8.80
2022-10-18T04:26:47.914Z,8.78
2022-10-18T04:30:10.190Z,8.83
2022-10-18T04:33:29.323Z,8.78
2022-10-18T04:36:40.223Z,8.70
2022-10-18T04:40:03.201Z,8.62
2022-10-18T04:43:30.276Z,8.60
2022-10-18T04:46:52.117Z,8.64
2022-10-18T04:50:15.247Z,8.62
2022-10-18T04:53:36.104Z,8.69
2022-10-18T04:57:06.152Z,8.72
2022-10-18T05:00:29.068Z,8.75
2022-10-18T05:03:50.932Z,8.76
2022-10-18T05:07:14.100Z,8.72
2022-10-18T05:10:36.226Z,8.72
2022-10-18T05:13:56.082Z,8.66
2022-10-18T05:16:59.701Z,8.67
2022-10-18T05:20:02.669Z,8.62
2022-10-18T05:23:12.780Z,8.49
2022-10-18T05:26:35.157Z,8.46
2022-10-18T05:30:01.260Z,8.45
2022-10-18T05:33:32.428Z,8.47
2022-10-18T05:36:51.333Z,8.38
2022-10-18T05:40:14.034Z,8.48
2022-10-18T05:43:28.711Z,8.63
2022-10-18T05:46:45.746Z,8.73
2022-10-18T05:50:17.259Z,8.74
2022-10-18T05:53:38.011Z,8.82
2022-10-18T05:56:54.260Z,8.89
2022-10-18T06:00:15.085Z,8.98
2022-10-18T06:08:49.071Z,8.92
2022-10-18T06:12:17.356Z,8.92
2022-10-18T06:15:33.594Z,9.10
2022-10-18T06:19:02.570Z,9.14
2022-10-18T06:22:09.447Z,9.14
2022-10-18T06:25:34.482Z,9.21
2022-10-18T06:28:41.626Z,9.41
2022-10-18T06:31:55.286Z,9.41
2022-10-18T06:34:58.288Z,9.56
2022-10-18T06:38:58.048Z,9.68
2022-10-18T06:42:22.621Z,9.77
2022-10-18T06:45:50.906Z,9.80
2022-10-18T06:49:22.167Z,9.94
2022-10-18T06:53:16.542Z,9.95
2022-10-18T06:57:07.343Z,10.01
2022-10-18T07:00:19.376Z,10.07
2022-10-18T07:03:25.040Z,10.18
2022-10-18T07:06:54.264Z,10.30
2022-10-18T07:10:01.278Z,10.36
2022-10-18T07:13:32.052Z,10.37
2022-10-18T07:17:01.900Z,10.45
2022-10-18T07:20:13.025Z,10.59
2022-10-18T07:23:29.059Z,10.54
2022-10-18T07:27:13.320Z,10.61
2022-10-18T07:30:41.606Z,10.73
2022-10-18T07:35:13.191Z,10.85
2022-10-18T07:38:53.435Z,11.09
2022-10-18T07:42:28.622Z,11.25
2022-10-18T07:51:10.246Z,11.59
2022-10-18T07:55:09.608Z,11.66
2022-10-18T08:03:27.910Z,12.38
2022-10-18T08:06:41.101Z,12.51
2022-10-18T08:10:20.674Z,12.59
2022-10-18T08:13:47.045Z,12.66
2022-10-18T08:17:07.020Z,12.68
2022-10-18T08:21:34.703Z,12.99
2022-10-18T08:30:59.078Z,13.57
2022-10-18T08:34:25.101Z,13.87
2022-10-18T08:37:44.058Z,14.12
2022-10-18T08:41:38.354Z,13.98
2022-10-18T08:46:04.139Z,14.36
2022-10-18T08:49:51.043Z,14.44
2022-10-18T08:59:24.738Z,14.81
2022-10-18T09:03:00.303Z,14.98
2022-10-18T09:16:04.955Z,15.36
2022-10-18T09:19:36.174Z,15.52
2022-10-18T09:22:51.440Z,15.73
2022-10-18T09:32:40.091Z,15.95
2022-10-18T09:36:26.027Z,16.17
2022-10-18T09:39:57.775Z,16.25
2022-10-18T09:48:26.368Z,16.67
2022-10-18T09:51:58.819Z,16.64
2022-10-18T09:55:27.421Z,16.68
2022-10-18T09:58:51.528Z,16.82
2022-10-18T10:02:52.394Z,17.05
2022-10-18T10:06:18.949Z,17.15
2022-10-18T10:10:16.766Z,17.23
2022-10-18T10:13:42.132Z,17.41
2022-10-18T10:16:51.739Z,17.45
2022-10-18T10:20:05.722Z,17.50
2022-10-18T10:23:39.315Z,17.35
2022-10-18T10:27:25.087Z,17.51
2022-10-18T10:30:45.162Z,17.67
2022-10-18T10:34:44.622Z,17.69
2022-10-18T10:37:58.471Z,17.84
2022-10-18T10:41:24.517Z,17.88
2022-10-18T10:44:40.086Z,17.89
2022-10-18T10:49:21.692Z,18.19
2022-10-18T10:52:57.464Z,18.20
2022-10-18T10:56:50.680Z,18.29
2022-10-18T11:00:57.470Z,18.35
2022-10-18T11:04:35.385Z,18.57
2022-10-18T11:08:23.942Z,18.88
2022-10-18T11:12:02.105Z,19.00
2022-10-18T11:20:25.896Z,19.12
2022-10-18T11:23:44.890Z,19.15
2022-10-18T11:27:09.908Z,19.25
2022-10-18T11:34:55.834Z,19.53
2022-10-18T11:38:53.858Z,19.80
2022-10-18T11:42:17.929Z,19.88
2022-10-18T11:46:35.475Z,19.90
2022-10-18T11:49:53.482Z,19.95
2022-10-18T11:53:37.722Z,20.08
2022-10-18T11:57:26.143Z,20.21
2022-10-18T12:00:55.158Z,20.29
2022-10-18T12:05:05.320Z,20.29
2022-10-18T12:08:45.456Z,20.46
2022-10-18T12:12:47.578Z,20.47
2022-10-18T12:16:50.515Z,20.54
2022-10-18T12:21:15.111Z,20.38
2022-10-18T12:24:35.475Z,20.47
2022-10-18T12:32:34.904Z,21.88
2022-10-18T12:36:07.220Z,21.61
2022-10-18T12:39:37.521Z,21.78
2022-10-18T12:43:00.313Z,20.82
2022-10-18T12:46:30.097Z,20.29
2022-10-18T12:49:52.886Z,19.90
2022-10-18T12:58:13.686Z,19.72
2022-10-18T13:01:35.874Z,19.60
2022-10-18T13:04:40.833Z,19.62
2022-10-18T13:07:46.701Z,19.73
2022-10-18T13:11:12.888Z,19.65
2022-10-18T13:14:25.991Z,19.62
2022-10-18T13:17:48.469Z,19.48
2022-10-18T13:21:17.827Z,19.67
2022-10-18T13:24:26.333Z,19.72
2022-10-18T13:27:49.103Z,19.63
2022-10-18T13:31:05.250Z,19.53
2022-10-18T13:34:31.372Z,19.53
2022-10-18T13:37:37.797Z,19.61
2022-10-18T13:40:43.132Z,19.60
2022-10-18T13:43:55.966Z,19.64
2022-10-18T13:47:05.818Z,19.57
2022-10-18T13:50:33.073Z,19.42
2022-10-18T13:53:59.754Z,19.35
2022-10-18T13:57:26.280Z,19.30
2022-10-18T14:01:06.909Z,19.21
2022-10-18T14:04:28.369Z,19.45
2022-10-18T14:08:12.694Z,19.39
2022-10-18T14:11:38.153Z,19.38
2022-10-18T14:14:58.580Z,19.24
2022-10-18T14:18:44.929Z,19.47
2022-10-18T14:22:30.530Z,19.30
2022-10-18T14:25:45.068Z,19.20
2022-10-18T14:29:20.440Z,19.03
2022-10-18T14:32:29.989Z,18.77
2022-10-18T14:35:35.758Z,18.70
2022-10-18T14:39:13.871Z,18.72
2022-10-18T14:42:35.906Z,18.67
2022-10-18T14:45:58.858Z,18.49
2022-10-18T14:49:19.962Z,18.53
2022-10-18T14:52:35.099Z,18.45
2022-10-18T14:56:06.794Z,18.26
2022-10-18T14:59:27.087Z,18.14
2022-10-18T15:02:36.467Z,18.61
2022-10-18T15:06:08.608Z,18.73
2022-10-18T15:09:33.690Z,18.38
2022-10-18T15:13:17.568Z,18.10
2022-10-18T15:16:19.317Z,17.88
2022-10-18T15:19:59.372Z,17.75
2022-10-18T15:23:32.131Z,17.67
2022-10-18T15:26:53.241Z,17.72
2022-10-18T15:30:21.331Z,17.84
2022-10-18T15:33:34.821Z,17.77
2022-10-18T15:36:39.219Z,17.53
2022-10-18T15:39:42.099Z,17.37
2022-10-18T15:42:47.124Z,17.22
2022-10-18T15:45:53.779Z,17.07
2022-10-18T15:49:18.824Z,16.89
2022-10-18T15:52:21.657Z,16.77
2022-10-18T15:55:31.591Z,16.61
2022-10-18T15:58:44.319Z,16.43
2022-10-18T16:01:47.670Z,16.29
2022-10-18T16:05:08.758Z,16.11
2022-10-18T16:08:28.973Z,15.91
2022-10-18T16:11:35.156Z,15.81
2022-10-18T16:14:39.183Z,15.67
2022-10-18T16:17:51.448Z,15.54
2022-10-18T16:21:14.506Z,15.37
2022-10-18T16:24:36.502Z,15.31
2022-10-18T16:27:59.566Z,15.19
2022-10-18T16:31:24.239Z,15.20
2022-10-18T16:34:43.453Z,15.23
2022-10-18T16:38:06.615Z,15.28
2022-10-18T16:41:29.458Z,15.40
2022-10-18T16:44:51.469Z,15.54
2022-10-18T16:48:12.466Z,15.48
2022-10-18T16:51:28.557Z,15.25
2022-10-18T16:54:42.980Z,15.10
2022-10-18T16:57:46.665Z,15.03
2022-10-18T17:00:52.096Z,15.01
2022-10-18T17:04:07.492Z,14.98
2022-10-18T17:07:31.459Z,14.84
2022-10-18T17:10:53.114Z,14.72
2022-10-18T17:14:03.122Z,14.64
2022-10-18T17:17:05.837Z,14.50
2022-10-18T17:20:21.327Z,14.57
2022-10-18T17:23:27.923Z,14.61
2022-10-18T17:26:44.470Z,14.49
2022-10-18T17:30:06.588Z,14.36
2022-10-18T17:33:30.379Z,14.23
2022-10-18T17:36:50.518Z,14.12
2022-10-18T17:39:53.560Z,14.00
2022-10-18T17:42:57.806Z,13.94
2022-10-18T17:46:19.703Z,13.80
2022-10-18T17:49:40.097Z,13.67
2022-10-18T17:52:49.074Z,13.60
2022-10-18T17:56:02.409Z,13.54
2022-10-18T17:59:12.729Z,13.64
2022-10-18T18:02:47.359Z,13.74
2022-10-18T18:06:29.301Z,13.66
2022-10-18T18:09:49.343Z,13.54
2022-10-18T18:13:05.340Z,13.53
2022-10-18T18:16:34.416Z,13.44
2022-10-18T18:23:08.327Z,13.34
2022-10-18T18:26:42.278Z,13.25
2022-10-18T18:30:08.137Z,13.14
2022-10-18T18:33:33.113Z,13.03
2022-10-18T18:36:55.060Z,13.04
2022-10-18T18:40:16.083Z,13.03
2022-10-18T18:43:38.011Z,12.93
2022-10-18T18:46:48.054Z,12.85
2022-10-18T18:50:11.194Z,12.74
2022-10-18T18:53:46.213Z,12.65
2022-10-18T18:57:05.356Z,12.59
2022-10-18T19:00:28.194Z,12.61
2022-10-18T19:03:51.175Z,12.62
2022-10-18T19:07:14.219Z,12.60
2022-10-18T19:10:37.093Z,12.55
2022-10-18T19:13:48.863Z,12.53
2022-10-18T19:17:14.208Z,12.51
2022-10-18T19:20:43.054Z,12.44
2022-10-18T19:24:00.171Z,12.42
2022-10-18T19:27:20.189Z,12.39
2022-10-18T19:30:49.948Z,12.35
2022-10-18T19:34:07.270Z,12.26
2022-10-18T19:37:27.217Z,12.28
2022-10-18T19:40:51.594Z,12.24
2022-10-18T19:44:13.048Z,12.19
2022-10-18T19:47:33.128Z,12.16
2022-10-18T19:50:54.130Z,12.04
2022-10-18T19:54:14.065Z,12.02
2022-10-18T19:57:35.634Z,11.94
2022-10-18T20:00:56.336Z,11.92
2022-10-18T20:03:59.645Z,11.93
2022-10-18T20:07:03.240Z,11.90
2022-10-18T20:10:23.660Z,11.77
2022-10-18T20:13:46.021Z,11.74
2022-10-18T20:16:59.800Z,11.76
2022-10-18T20:20:17.018Z,11.75
2022-10-18T20:23:49.801Z,11.76
2022-10-18T20:27:10.826Z,11.64
2022-10-18T20:30:32.769Z,11.53
2022-10-18T20:33:55.915Z,11.38
2022-10-18T20:37:16.204Z,11.47
2022-10-18T20:40:29.773Z,11.40
2022-10-18T20:43:53.878Z,11.45
2022-10-18T20:47:23.956Z,11.42
2022-10-18T20:50:32.047Z,11.39
2022-10-18T20:53:35.959Z,11.39
2022-10-18T20:56:45.478Z,11.35
2022-10-18T21:00:07.847Z,11.37
2022-10-18T21:03:30.870Z,11.28
2022-10-18T21:06:54.446Z,11.34
2022-10-18T21:10:16.838Z,11.30
2022-10-18T21:13:52.831Z,11.19
2022-10-18T21:17:21.792Z,11.09
2022-10-18T21:21:01.897Z,11.19
2022-10-18T21:24:26.942Z,11.14
2022-10-18T21:27:46.870Z,11.04
2022-10-18T21:31:20.042Z,11.01
2022-10-18T21:34:40.912Z,10.92
2022-10-18T21:37:56.836Z,10.89
2022-10-18T21:41:19.936Z,10.96
2022-10-18T21:44:43.793Z,10.96
2022-10-18T21:48:06.735Z,10.99
2022-10-18T21:51:20.834Z,11.03
2022-10-18T21:54:43.815Z,11.03
2022-10-18T21:58:10.906Z,11.03
2022-10-18T22:01:32.489Z,11.08
2022-10-18T22:04:53.832Z,11.14
2022-10-18T22:08:14.726Z,11.07
2022-10-18T22:11:34.824Z,11.06
2022-10-18T22:14:50.879Z,10.97
2022-10-18T22:18:17.953Z,11.00
2022-10-18T22:21:20.988Z,10.96
2022-10-18T22:24:24.767Z,11.00
2022-10-18T22:27:45.304Z,11.04
2022-10-18T22:31:06.397Z,11.03
2022-10-18T22:34:33.321Z,11.14
2022-10-18T22:37:53.497Z,10.99
2022-10-18T22:41:15.480Z,10.92
2022-10-18T22:44:31.745Z,10.86
2022-10-18T22:47:51.605Z,10.85
2022-10-18T22:51:13.707Z,10.87
2022-10-18T22:54:36.561Z,10.81
2022-10-18T22:58:04.581Z,10.77
2022-10-18T23:01:26.442Z,10.90
2022-10-18T23:04:42.734Z,11.00
2022-10-18T23:08:02.585Z,10.98
2022-10-18T23:11:36.630Z,10.93
2022-10-18T23:14:57.354Z,11.05
2022-10-18T23:18:19.398Z,11.07
2022-10-18T23:21:41.449Z,11.16
2022-10-18T23:25:02.639Z,11.16
2022-10-18T23:28:25.623Z,11.17
2022-10-18T23:31:49.990Z,11.10
2022-10-18T23:35:11.378Z,10.94
2022-10-18T23:38:33.399Z,10.99
2022-10-18T23:41:55.431Z,10.89
2022-10-18T23:45:16.468Z,10.83
2022-10-18T23:48:39.469Z,10.88
2022-10-18T23:51:56.716Z,10.86
2022-10-18T23:55:18.461Z,10.77
2022-10-18T23:58:40.558Z,10.74
